»·PEaware :: DAL2841 KSLC-KPDX

DAL2841 :: KSLC-KPDX

FLIGHT INFORMATION

Flight Status: Arrived
Operator:
Delta Air Lines
More flights by this operator :: More flights under this callsign
Pilot: Varun S. (14197)
Aircraft: BOEING 737-800
(B738)
More flights by this aircraft type
Origin: KSLC Salt Lake City Intl
United States
Destination: KPDX Portland Intl
United States
More flights between these airports :: More routes between these airports
Route: CGULL1 TWF BROPH JOTBA HHOOD4
File this flight plan on PilotEdge
Remarks:
Altitude:
(Current/Filed)
36,000ft
Speed:
(Current/Filed)
454kts
Departed: 12-Jun-18 05:49 PM
Arrived: 12-Jun-18 07:13 PM
Distance/Time
Traveled:
546nm/1:24
Distance/Time
To Go:
Arrived

Flight Plot

Page will automatically refresh every two minutes.

Flight plan parsing failed; only flown route is shown


Map Options




Map Legend


Flown Route
Filed Route
Departure Airport
Arrival Airport
Navaid (VOR, NDB)
Fix

Horizontal Profiles

Position Reports

Time Latitude Longitude Heading Altitude Ground
Speed
12-Jun-18 17:03 40.788108 -111.977804 266 4234ft 0kts
12-Jun-18 17:04 40.788108 -111.977804 266 4234ft 0kts
12-Jun-18 17:05 40.788108 -111.977804 266 4234ft 0kts
12-Jun-18 17:06 40.788108 -111.977804 266 4234ft 0kts
12-Jun-18 17:07 40.788108 -111.977804 266 4234ft 0kts
12-Jun-18 17:08 40.788108 -111.977804 266 4234ft 0kts
12-Jun-18 17:09 40.788108 -111.977804 266 4234ft 0kts
12-Jun-18 17:10 40.788108 -111.977804 266 4235ft 0kts
12-Jun-18 17:11 40.788108 -111.977804 266 4235ft 0kts
12-Jun-18 17:12 40.788108 -111.977804 266 4235ft 0kts
12-Jun-18 17:13 40.788108 -111.977804 266 4235ft 0kts
12-Jun-18 17:14 40.788108 -111.977804 266 4235ft 0kts
12-Jun-18 17:15 40.788108 -111.977804 266 4235ft 0kts
12-Jun-18 17:16 40.788108 -111.977804 266 4234ft 0kts
12-Jun-18 17:17 40.788108 -111.977804 266 4234ft 0kts
12-Jun-18 17:18 40.788108 -111.977804 266 4234ft 0kts
12-Jun-18 17:23 40.788108 -111.977804 266 4234ft 0kts
12-Jun-18 17:24 40.788108 -111.977804 266 4234ft 0kts
12-Jun-18 17:25 40.788108 -111.977804 266 4234ft 0kts
12-Jun-18 17:26 40.788108 -111.977804 266 4235ft 0kts
12-Jun-18 17:27 40.788108 -111.977804 266 4235ft 0kts
12-Jun-18 17:28 40.788108 -111.977804 266 4235ft 0kts
12-Jun-18 17:29 40.788108 -111.977804 266 4235ft 0kts
12-Jun-18 17:30 40.788108 -111.977804 266 4235ft 0kts
12-Jun-18 17:31 40.788108 -111.977804 266 4235ft 0kts
12-Jun-18 17:32 40.788108 -111.977804 266 4235ft 0kts
12-Jun-18 17:33 40.788108 -111.977804 266 4235ft 0kts
12-Jun-18 17:34 40.788108 -111.977804 266 4235ft 0kts
12-Jun-18 17:35 40.788108 -111.977804 266 4235ft 0kts
12-Jun-18 17:36 40.788108 -111.977804 266 4235ft 0kts
12-Jun-18 17:37 40.788108 -111.977015 297 4235ft 2kts
12-Jun-18 17:38 40.787889 -111.976790 346 4235ft 0kts
12-Jun-18 17:39 40.787889 -111.976790 346 4235ft 0kts
12-Jun-18 17:40 40.787889 -111.976790 346 4235ft 0kts
12-Jun-18 17:41 40.787889 -111.976790 346 4235ft 0kts
12-Jun-18 17:42 40.787889 -111.976790 346 4235ft 0kts
12-Jun-18 17:43 40.788336 -111.976817 357 4235ft 6kts
12-Jun-18 17:44 40.791235 -111.977146 354 4235ft 11kts
12-Jun-18 17:45 40.794381 -111.977521 353 4235ft 12kts
12-Jun-18 17:46 40.798453 -111.977999 354 4235ft 15kts
12-Jun-18 17:47 40.802741 -111.978501 354 4235ft 15kts
12-Jun-18 17:48 40.806744 -111.978963 1 4235ft 12kts
12-Jun-18 17:49 40.803311 -111.976382 174 4235ft 81kts
12-Jun-18 17:50 40.759613 -111.976181 214 6146ft 184kts
12-Jun-18 17:51 40.774000 -112.047453 306 7951ft 267kts
12-Jun-18 17:52 40.822682 -112.129501 313 11102ft 296kts
12-Jun-18 17:53 40.891344 -112.211955 317 12718ft 372kts
12-Jun-18 17:54 40.970763 -112.306861 317 15472ft 394kts
12-Jun-18 17:55 41.053578 -112.406275 318 18120ft 410kts
12-Jun-18 17:56 41.149703 -112.493064 327 20497ft 425kts
12-Jun-18 17:57 41.246299 -112.587450 322 22575ft 438kts
12-Jun-18 17:58 41.334584 -112.701866 311 24413ft 451kts
12-Jun-18 17:59 41.419697 -112.827850 310 26027ft 462kts
12-Jun-18 18:00 41.504722 -112.958438 310 27427ft 472kts
12-Jun-18 18:01 41.591192 -113.091833 310 29000ft 473kts
12-Jun-18 18:02 41.677027 -113.223986 310 30679ft 469kts
12-Jun-18 18:03 41.762402 -113.356010 310 32240ft 466kts
12-Jun-18 18:04 41.846600 -113.487044 310 33695ft 463kts
12-Jun-18 18:05 41.930151 -113.617709 310 35054ft 460kts
12-Jun-18 18:06 42.013606 -113.748325 310 35986ft 462kts
12-Jun-18 18:07 42.096372 -113.879171 310 35999ft 457kts
12-Jun-18 18:08 42.178635 -114.009707 310 35999ft 457kts
12-Jun-18 18:09 42.261260 -114.140727 310 35999ft 457kts
12-Jun-18 18:10 42.344071 -114.271747 310 35999ft 457kts
12-Jun-18 18:11 42.426114 -114.403099 310 35999ft 457kts
12-Jun-18 18:12 42.508359 -114.534356 310 35999ft 457kts
12-Jun-18 18:13 42.591004 -114.666163 310 35999ft 457kts
12-Jun-18 18:14 42.672992 -114.798028 310 35999ft 457kts
12-Jun-18 18:15 42.750434 -114.934834 302 36000ft 457kts
12-Jun-18 18:16 42.818914 -115.081256 302 35999ft 457kts
12-Jun-18 18:17 42.887273 -115.227374 302 35999ft 457kts
12-Jun-18 18:18 42.956031 -115.373284 302 35999ft 457kts
12-Jun-18 18:19 43.024824 -115.519952 302 35999ft 457kts
12-Jun-18 18:20 43.093106 -115.666557 302 35999ft 457kts
12-Jun-18 18:21 43.161162 -115.813506 301 35999ft 457kts
12-Jun-18 18:22 43.217974 -115.936771 301 35999ft 457kts
12-Jun-18 18:23 43.285681 -116.084366 301 35999ft 457kts
12-Jun-18 18:24 43.353195 -116.232286 301 35999ft 457kts
12-Jun-18 18:25 43.420712 -116.380967 301 35999ft 457kts
12-Jun-18 18:26 43.487884 -116.529643 301 35999ft 457kts
12-Jun-18 18:27 43.555020 -116.678999 301 35999ft 457kts
12-Jun-18 18:28 43.621753 -116.828223 301 35999ft 457kts
12-Jun-18 18:29 43.688330 -116.977863 301 35999ft 457kts
12-Jun-18 18:30 43.754912 -117.128291 301 35999ft 457kts
12-Jun-18 18:31 43.821053 -117.278498 300 35999ft 457kts
12-Jun-18 18:32 43.887019 -117.429090 300 35999ft 458kts
12-Jun-18 18:33 43.952987 -117.580476 300 35999ft 458kts
12-Jun-18 18:34 44.018582 -117.731798 300 35999ft 458kts
12-Jun-18 18:35 44.083925 -117.883334 300 35999ft 458kts
12-Jun-18 18:36 44.149340 -118.035843 300 35999ft 458kts
12-Jun-18 18:37 44.214279 -118.188047 300 35999ft 458kts
12-Jun-18 18:38 44.279048 -118.340665 300 35999ft 458kts
12-Jun-18 18:39 44.343837 -118.494150 300 35999ft 458kts
12-Jun-18 18:40 44.408153 -118.647337 300 35999ft 458kts
12-Jun-18 18:41 44.472335 -118.801030 299 35999ft 458kts
12-Jun-18 18:42 44.536460 -118.955424 299 35999ft 458kts
12-Jun-18 18:43 44.600196 -119.109719 299 35999ft 458kts
12-Jun-18 18:44 44.663950 -119.264905 299 35999ft 458kts
12-Jun-18 18:45 44.727262 -119.419863 299 35999ft 458kts
12-Jun-18 18:46 44.790372 -119.575181 299 35999ft 458kts
12-Jun-18 18:47 44.853481 -119.731359 299 35999ft 458kts
12-Jun-18 18:48 44.916228 -119.887508 299 35684ft 459kts
12-Jun-18 18:49 44.978887 -120.044312 299 34687ft 460kts
12-Jun-18 18:50 45.041941 -120.202163 299 33307ft 460kts
12-Jun-18 18:51 45.104459 -120.360683 298 29919ft 463kts
12-Jun-18 18:52 45.167177 -120.520860 298 26288ft 467kts
12-Jun-18 18:53 45.228870 -120.680844 298 23187ft 452kts
12-Jun-18 18:54 45.288197 -120.834093 298 20327ft 434kts
12-Jun-18 18:55 45.344515 -120.981996 298 17598ft 417kts
12-Jun-18 18:56 45.396085 -121.117776 298 16580ft 369kts
12-Jun-18 18:57 45.438097 -121.246810 286 14972ft 352kts
12-Jun-18 18:58 45.463240 -121.378154 285 13430ft 329kts
12-Jun-18 18:59 45.487658 -121.501385 285 12112ft 322kts
12-Jun-18 19:00 45.511370 -121.622176 285 10867ft 301kts
12-Jun-18 19:01 45.530521 -121.734443 275 9869ft 281kts
12-Jun-18 19:02 45.534142 -121.837896 272 8830ft 254kts
12-Jun-18 19:03 45.537403 -121.934952 272 7742ft 237kts
12-Jun-18 19:04 45.541687 -122.027605 266 6816ft 231kts
12-Jun-18 19:05 45.512508 -122.102216 233 6261ft 208kts
12-Jun-18 19:06 45.478904 -122.168749 237 5795ft 206kts
12-Jun-18 19:07 45.477552 -122.248251 277 4895ft 203kts
12-Jun-18 19:08 45.488589 -122.323876 296 3885ft 189kts
12-Jun-18 19:09 45.513696 -122.387918 298 2890ft 177kts
12-Jun-18 19:10 45.537346 -122.448389 298 1964ft 171kts
12-Jun-18 19:11 45.559161 -122.504247 298 1073ft 149kts
12-Jun-18 19:12 45.579004 -122.555101 298 286ft 145kts
12-Jun-18 19:13 45.592646 -122.590969 268 38ft 16kts
12-Jun-18 19:14 45.592637 -122.591710 268 38ft 5kts
12-Jun-18 19:15 45.591471 -122.594614 207 38ft 0kts

Navigation Log

Ident Type
Flight plan parsing failed, navigation log unavailable